createdAt,value
2019-01-24T00:01:51.001Z,17.17
2019-01-24T00:04:21.491Z,15.57
2019-01-24T00:06:52.041Z,16.20
2019-01-24T00:09:22.604Z,18.63
2019-01-24T00:11:53.318Z,16.80
2019-01-24T00:14:23.944Z,17.27
2019-01-24T00:16:54.455Z,15.80
2019-01-24T00:19:24.921Z,18.03
2019-01-24T00:21:55.482Z,18.63
2019-01-24T00:24:25.960Z,16.97
2019-01-24T00:26:56.574Z,18.27
2019-01-24T00:29:27.144Z,18.57
2019-01-24T00:31:57.725Z,16.67
2019-01-24T00:34:28.199Z,19.57
2019-01-24T00:36:58.902Z,18.40
2019-01-24T00:39:29.431Z,18.77
2019-01-24T00:42:00.018Z,18.47
2019-01-24T00:44:30.655Z,19.33
2019-01-24T00:47:01.223Z,19.77
2019-01-24T00:49:31.969Z,18.03
2019-01-24T00:52:02.545Z,18.07
2019-01-24T00:54:33.020Z,18.97
2019-01-24T00:57:03.663Z,19.35
2019-01-24T00:59:34.249Z,16.97
2019-01-24T01:02:05.092Z,16.13
2019-01-24T01:04:35.599Z,16.37
2019-01-24T01:07:06.453Z,19.80
2019-01-24T01:09:37.034Z,19.07
2019-01-24T01:12:07.992Z,19.20
2019-01-24T01:14:38.801Z,21.83
2019-01-24T01:17:09.457Z,19.10
2019-01-24T01:19:39.950Z,18.03
2019-01-24T01:22:10.798Z,17.50
2019-01-24T01:24:41.262Z,17.97
2019-01-24T01:27:11.757Z,18.80
2019-01-24T01:29:42.341Z,19.63
2019-01-24T01:32:12.988Z,19.43
2019-01-24T01:34:43.427Z,16.10
2019-01-24T01:37:13.993Z,18.17
2019-01-24T01:39:44.510Z,18.23
2019-01-24T01:42:15.141Z,20.60
2019-01-24T01:44:45.610Z,20.70
2019-01-24T01:47:16.196Z,20.63
2019-01-24T01:49:46.710Z,19.57
2019-01-24T01:52:17.276Z,20.00
2019-01-24T01:54:47.817Z,20.93
2019-01-24T01:57:18.392Z,21.20
2019-01-24T01:59:48.973Z,19.93
2019-01-24T02:02:19.604Z,16.80
2019-01-24T02:04:50.162Z,20.53
2019-01-24T02:07:20.745Z,19.13
2019-01-24T02:09:51.304Z,19.73
2019-01-24T02:12:21.961Z,18.77
2019-01-24T02:14:52.612Z,21.83
2019-01-24T02:17:23.201Z,21.90
2019-01-24T02:19:53.825Z,19.60
2019-01-24T02:22:24.379Z,19.77
2019-01-24T02:24:54.924Z,19.60
2019-01-24T02:27:25.502Z,19.67
2019-01-24T02:29:56.031Z,21.20
2019-01-24T02:32:26.584Z,20.43
2019-01-24T02:34:57.076Z,19.90
2019-01-24T02:37:27.699Z,21.10
2019-01-24T02:39:58.374Z,20.33
2019-01-24T02:42:28.942Z,18.70
2019-01-24T02:44:59.477Z,21.30
2019-01-24T02:47:29.952Z,20.37
2019-01-24T02:50:00.524Z,23.40
2019-01-24T02:52:31.016Z,20.45
2019-01-24T02:55:01.532Z,20.37
2019-01-24T02:57:32.143Z,20.03
2019-01-24T03:00:02.744Z,21.33
2019-01-24T03:02:33.232Z,20.40
2019-01-24T03:05:04.430Z,21.60
2019-01-24T03:07:34.920Z,21.17
2019-01-24T03:10:07.659Z,22.00
2019-01-24T03:12:38.279Z,20.85
2019-01-24T03:15:10.671Z,20.47
2019-01-24T03:17:41.142Z,21.23
2019-01-24T03:20:12.016Z,25.13
2019-01-24T03:22:42.669Z,22.60
2019-01-24T03:25:13.761Z,23.20
2019-01-24T03:27:44.228Z,22.47
2019-01-24T03:30:20.774Z,23.13
2019-01-24T03:32:51.513Z,21.87
2019-01-24T03:35:27.337Z,24.23
2019-01-24T03:37:57.836Z,23.20
2019-01-24T03:40:28.383Z,23.10
2019-01-24T03:42:58.960Z,20.00
2019-01-24T03:45:29.440Z,24.73
2019-01-24T03:47:59.876Z,21.87
2019-01-24T03:50:30.381Z,20.67
2019-01-24T03:53:00.949Z,23.07
2019-01-24T03:55:31.510Z,21.90
2019-01-24T03:58:02.030Z,23.97
2019-01-24T04:00:32.548Z,22.50
2019-01-24T04:03:03.027Z,20.77
2019-01-24T04:05:33.638Z,19.47
2019-01-24T04:08:04.135Z,19.13
2019-01-24T04:10:34.571Z,23.43
2019-01-24T04:13:05.190Z,19.57
2019-01-24T04:15:35.712Z,21.03
2019-01-24T04:18:06.482Z,19.30
2019-01-24T04:20:36.981Z,18.53
2019-01-24T04:23:07.427Z,18.40
2019-01-24T04:25:37.966Z,18.60
2019-01-24T04:28:08.488Z,21.07
2019-01-24T04:30:38.940Z,18.70
2019-01-24T04:33:09.461Z,16.67
2019-01-24T04:35:39.984Z,19.50
2019-01-24T04:38:10.473Z,21.30
2019-01-24T04:40:40.972Z,19.07
2019-01-24T04:43:11.527Z,18.73
2019-01-24T04:45:42.146Z,18.07
2019-01-24T04:48:12.630Z,18.67
2019-01-24T04:50:43.095Z,23.47
2019-01-24T04:53:13.574Z,19.10
2019-01-24T04:55:44.104Z,20.50
2019-01-24T04:58:14.543Z,21.73
2019-01-24T05:00:45.015Z,20.20
2019-01-24T05:03:16.226Z,21.93
2019-01-24T05:05:46.768Z,21.40
2019-01-24T05:08:17.213Z,19.83
2019-01-24T05:10:47.671Z,17.57
2019-01-24T05:13:18.159Z,19.43
2019-01-24T05:15:48.586Z,21.03
2019-01-24T05:18:19.048Z,21.87
2019-01-24T05:20:49.759Z,23.80
2019-01-24T05:23:20.278Z,24.93
2019-01-24T05:25:50.919Z,24.17
2019-01-24T05:28:21.479Z,23.17
2019-01-24T05:30:52.024Z,24.33
2019-01-24T05:33:22.636Z,21.47
2019-01-24T05:35:53.168Z,23.67
2019-01-24T05:38:23.746Z,24.17
2019-01-24T05:40:54.243Z,20.73
2019-01-24T05:43:24.751Z,20.17
2019-01-24T05:45:55.216Z,20.60
2019-01-24T05:48:25.697Z,23.20
2019-01-24T05:50:56.154Z,26.43
2019-01-24T05:53:26.614Z,26.57
2019-01-24T05:55:57.160Z,22.77
2019-01-24T05:58:27.741Z,20.13
2019-01-24T06:00:58.207Z,19.90
2019-01-24T06:03:28.665Z,24.20
2019-01-24T06:05:59.106Z,22.33
2019-01-24T06:08:29.650Z,22.30
2019-01-24T06:11:00.136Z,23.53
2019-01-24T06:13:30.587Z,23.63
2019-01-24T06:16:01.125Z,21.37
2019-01-24T06:18:31.556Z,26.97
2019-01-24T06:21:02.009Z,20.87
2019-01-24T06:23:32.499Z,20.70
2019-01-24T06:26:02.912Z,22.80
2019-01-24T06:28:33.328Z,22.30
2019-01-24T06:31:03.807Z,19.67
2019-01-24T06:33:34.242Z,19.73
2019-01-24T06:36:04.698Z,21.00
2019-01-24T06:38:35.150Z,19.60
2019-01-24T06:41:05.702Z,21.37
2019-01-24T06:43:36.183Z,22.03
2019-01-24T06:46:06.618Z,21.47
2019-01-24T06:48:37.152Z,19.40
2019-01-24T06:51:07.629Z,19.53
2019-01-24T06:53:38.122Z,19.57
2019-01-24T06:56:08.581Z,21.83
2019-01-24T06:58:40.698Z,22.57
2019-01-24T07:01:11.241Z,19.63
2019-01-24T07:03:41.718Z,22.47
2019-01-24T07:06:12.193Z,19.33
2019-01-24T07:08:42.648Z,21.77
2019-01-24T07:11:13.134Z,19.97
2019-01-24T07:13:43.587Z,20.77
2019-01-24T07:16:14.040Z,19.63
2019-01-24T07:18:44.693Z,20.00
2019-01-24T07:21:15.203Z,21.33
2019-01-24T07:23:45.661Z,20.20
2019-01-24T07:26:16.124Z,20.83
2019-01-24T07:28:46.540Z,21.83
2019-01-24T07:31:17.028Z,19.20
2019-01-24T07:33:47.447Z,20.00
2019-01-24T07:36:17.897Z,19.23
2019-01-24T07:38:48.357Z,19.50
2019-01-24T07:41:18.862Z,24.93
2019-01-24T07:43:49.314Z,20.23
2019-01-24T07:46:19.785Z,18.77
2019-01-24T07:48:50.245Z,19.90
2019-01-24T07:51:20.816Z,21.33
2019-01-24T07:53:51.350Z,18.03
2019-01-24T07:56:21.918Z,20.30
2019-01-24T07:58:52.381Z,19.63
2019-01-24T08:01:22.874Z,20.80
2019-01-24T08:03:53.398Z,20.10
2019-01-24T08:06:23.869Z,18.87
2019-01-24T08:08:54.274Z,22.40
2019-01-24T08:11:24.695Z,20.13
2019-01-24T08:13:55.171Z,20.83
2019-01-24T08:16:25.606Z,22.07
2019-01-24T08:18:56.038Z,22.50
2019-01-24T08:21:26.532Z,19.97
2019-01-24T08:23:56.960Z,20.43
2019-01-24T08:26:27.444Z,22.53
2019-01-24T08:28:57.854Z,22.50
2019-01-24T08:31:28.266Z,21.53
2019-01-24T08:33:58.732Z,20.33
2019-01-24T08:36:29.162Z,21.33
2019-01-24T08:38:59.572Z,20.57
2019-01-24T08:41:30.026Z,19.47
2019-01-24T08:44:00.439Z,20.27
2019-01-24T08:46:30.887Z,22.40
2019-01-24T08:49:01.293Z,22.70
2019-01-24T08:51:31.737Z,21.13
2019-01-24T08:54:02.173Z,19.20
2019-01-24T08:56:32.598Z,25.17
2019-01-24T08:59:03.070Z,23.53
2019-01-24T09:01:33.515Z,22.60
2019-01-24T09:04:03.932Z,23.43
2019-01-24T09:06:34.384Z,24.03
2019-01-24T09:09:07.893Z,24.87
2019-01-24T09:11:38.393Z,21.60
2019-01-24T09:14:08.957Z,22.27
2019-01-24T09:16:39.380Z,21.87
2019-01-24T09:19:09.825Z,23.27
2019-01-24T09:21:40.267Z,19.60
2019-01-24T09:24:10.745Z,22.30
2019-01-24T09:26:41.200Z,19.97
2019-01-24T09:29:11.615Z,23.90
2019-01-24T09:31:42.073Z,24.03
2019-01-24T09:34:12.605Z,21.87
2019-01-24T09:36:43.032Z,23.70
2019-01-24T09:39:13.491Z,21.07
2019-01-24T09:41:43.991Z,21.70
2019-01-24T09:44:14.433Z,22.00
2019-01-24T09:46:44.857Z,18.77
2019-01-24T09:49:15.304Z,20.60
2019-01-24T09:51:45.731Z,18.33
2019-01-24T09:54:16.164Z,18.33
2019-01-24T09:56:46.647Z,18.83
2019-01-24T09:59:17.095Z,16.90
2019-01-24T10:01:47.562Z,18.63
2019-01-24T10:04:17.989Z,17.40
2019-01-24T10:06:48.422Z,16.80
2019-01-24T10:09:18.890Z,18.53
2019-01-24T10:11:49.322Z,15.37
2019-01-24T10:14:19.802Z,17.93
2019-01-24T10:16:50.272Z,14.73
2019-01-24T10:19:20.831Z,16.93
2019-01-24T10:21:51.347Z,14.43
2019-01-24T10:24:21.902Z,16.77
2019-01-24T10:26:52.446Z,17.50
2019-01-24T10:29:22.898Z,17.07
2019-01-24T10:31:53.344Z,16.20
2019-01-24T10:34:23.772Z,18.93
2019-01-24T10:36:54.255Z,21.67
2019-01-24T10:39:24.724Z,18.17
2019-01-24T10:41:55.156Z,17.17
2019-01-24T10:44:25.597Z,15.33
2019-01-24T10:46:56.018Z,14.40
2019-01-24T10:49:26.473Z,14.47
2019-01-24T10:51:57.014Z,15.43
2019-01-24T10:54:27.458Z,16.50
2019-01-24T10:56:57.949Z,17.27
2019-01-24T10:59:28.389Z,17.90
2019-01-24T11:01:58.833Z,15.43
2019-01-24T11:04:29.285Z,14.43
2019-01-24T11:06:59.703Z,14.20
2019-01-24T11:09:30.150Z,15.70
2019-01-24T11:12:00.657Z,15.40
2019-01-24T11:14:31.181Z,15.67
2019-01-24T11:17:01.626Z,15.93
2019-01-24T11:19:32.071Z,13.17
2019-01-24T11:22:02.564Z,17.67
2019-01-24T11:24:33.001Z,18.07
2019-01-24T11:27:03.496Z,17.37
2019-01-24T11:29:33.980Z,16.47
2019-01-24T11:32:06.830Z,16.43
2019-01-24T11:34:37.329Z,16.17
2019-01-24T11:37:07.790Z,16.30
2019-01-24T11:39:38.228Z,17.63
2019-01-24T11:42:08.683Z,18.30
2019-01-24T11:44:39.151Z,16.10
2019-01-24T11:47:09.685Z,19.57
2019-01-24T11:49:40.120Z,17.43
2019-01-24T11:52:10.615Z,20.27
2019-01-24T11:54:41.050Z,20.97
2019-01-24T11:57:11.507Z,19.60
2019-01-24T11:59:41.988Z,23.73
2019-01-24T12:02:12.407Z,19.03
2019-01-24T12:04:42.853Z,19.87
2019-01-24T12:07:13.268Z,22.90
2019-01-24T12:09:43.722Z,22.07
2019-01-24T12:12:14.204Z,22.87
2019-01-24T12:14:44.645Z,20.23
2019-01-24T12:17:15.180Z,23.13
2019-01-24T12:19:45.636Z,24.57
2019-01-24T12:22:18.368Z,25.50
2019-01-24T12:24:48.824Z,22.93
2019-01-24T12:27:19.247Z,22.23
2019-01-24T12:29:49.743Z,23.30
2019-01-24T12:32:20.186Z,20.40
2019-01-24T12:34:50.618Z,21.97
2019-01-24T12:37:21.179Z,25.27
2019-01-24T12:39:51.620Z,26.03
2019-01-24T12:42:22.213Z,22.27
2019-01-24T12:44:52.652Z,23.47
2019-01-24T12:47:23.211Z,21.80
2019-01-24T12:49:53.682Z,22.03
2019-01-24T12:52:24.166Z,20.13
2019-01-24T12:54:54.636Z,20.20
2019-01-24T12:57:25.097Z,20.27
2019-01-24T12:59:55.545Z,20.33
2019-01-24T13:02:25.984Z,23.23
2019-01-24T13:04:56.449Z,21.03
2019-01-24T13:07:26.859Z,22.07
2019-01-24T13:09:57.618Z,23.40
2019-01-24T13:12:28.074Z,22.13
2019-01-24T13:14:58.601Z,23.27
2019-01-24T13:17:29.167Z,20.57
2019-01-24T13:19:59.618Z,22.27
2019-01-24T13:22:30.119Z,20.70
2019-01-24T13:25:00.547Z,21.43
2019-01-24T13:27:30.965Z,24.30
2019-01-24T13:30:01.438Z,21.20
2019-01-24T13:32:31.858Z,22.73
2019-01-24T13:35:02.279Z,21.77
2019-01-24T13:37:32.724Z,22.53
2019-01-24T13:40:03.141Z,21.47
2019-01-24T13:42:33.585Z,25.80
2019-01-24T13:45:04.109Z,25.67
2019-01-24T13:47:34.557Z,25.00
2019-01-24T13:50:06.660Z,22.77
2019-01-24T13:52:37.086Z,23.40
2019-01-24T13:55:07.873Z,22.23
2019-01-24T13:57:39.281Z,23.77
2019-01-24T14:00:20.571Z,21.07
2019-01-24T14:02:55.432Z,19.93
2019-01-24T14:05:25.930Z,21.67
2019-01-24T14:07:56.355Z,21.43
2019-01-24T14:10:26.835Z,22.93
2019-01-24T14:12:57.239Z,20.97
2019-01-24T14:15:27.731Z,22.90
2019-01-24T14:17:58.150Z,25.80
2019-01-24T14:20:28.789Z,24.30
2019-01-24T14:22:59.236Z,22.43
2019-01-24T14:25:31.118Z,21.10
2019-01-24T14:28:01.625Z,23.37
2019-01-24T14:30:32.190Z,21.90
2019-01-24T14:33:02.621Z,22.20
2019-01-24T14:35:33.068Z,22.03
2019-01-24T14:38:03.614Z,22.20
2019-01-24T14:40:34.093Z,22.33
2019-01-24T14:43:04.785Z,25.97
2019-01-24T14:45:35.212Z,23.60
2019-01-24T14:48:06.409Z,23.43
2019-01-24T14:50:36.887Z,22.70
2019-01-24T14:53:07.523Z,23.03
2019-01-24T14:55:38.063Z,21.37
2019-01-24T14:58:08.527Z,24.33
2019-01-24T15:00:50.267Z,21.77
2019-01-24T15:03:20.747Z,22.43
2019-01-24T15:05:51.226Z,20.80
2019-01-24T15:08:21.814Z,20.80
2019-01-24T15:10:52.372Z,24.90
2019-01-24T15:13:22.903Z,22.67
2019-01-24T15:15:53.442Z,24.67
2019-01-24T15:18:23.863Z,25.63
2019-01-24T15:20:54.362Z,23.70
2019-01-24T15:23:24.789Z,24.97
2019-01-24T15:25:55.255Z,24.80
2019-01-24T15:28:25.714Z,27.97
2019-01-24T15:30:56.189Z,26.53
2019-01-24T15:33:26.631Z,26.17
2019-01-24T15:35:57.094Z,23.70
2019-01-24T15:38:27.539Z,22.60
2019-01-24T15:40:57.985Z,22.73
2019-01-24T15:43:28.441Z,22.07
2019-01-24T15:45:58.972Z,22.43
2019-01-24T15:48:29.627Z,21.63
2019-01-24T15:51:00.068Z,21.67
2019-01-24T15:53:30.547Z,20.00
2019-01-24T15:56:01.010Z,23.47
2019-01-24T15:58:31.442Z,25.27
2019-01-24T16:01:01.998Z,22.13
2019-01-24T16:03:32.406Z,21.13
2019-01-24T16:06:02.987Z,23.47
2019-01-24T16:08:33.481Z,20.30
2019-01-24T16:11:03.942Z,21.77
2019-01-24T16:13:34.374Z,24.37
2019-01-24T16:16:05.096Z,23.73
2019-01-24T16:18:35.524Z,20.83
2019-01-24T16:21:06.180Z,27.87
2019-01-24T16:23:36.616Z,22.27
2019-01-24T16:26:07.430Z,23.90
2019-01-24T16:28:37.885Z,23.20
2019-01-24T16:31:08.376Z,23.03
2019-01-24T16:33:38.935Z,23.23
2019-01-24T16:36:09.456Z,25.07
2019-01-24T16:38:40.209Z,22.33
2019-01-24T16:41:10.833Z,20.23
2019-01-24T16:43:41.314Z,20.73
2019-01-24T16:46:11.824Z,21.97
2019-01-24T16:48:42.326Z,22.33
2019-01-24T16:51:12.805Z,21.67
2019-01-24T16:53:43.374Z,20.83
2019-01-24T16:56:13.874Z,20.97
2019-01-24T16:58:44.427Z,21.67
2019-01-24T17:01:19.945Z,23.83
2019-01-24T17:03:50.535Z,23.97
2019-01-24T17:06:22.563Z,22.22
2019-01-24T17:08:55.268Z,21.57
2019-01-24T17:11:25.913Z,23.13
2019-01-24T17:13:56.497Z,23.10
2019-01-24T17:16:27.000Z,24.13
2019-01-24T17:18:57.586Z,24.80
2019-01-24T17:21:28.334Z,24.77
2019-01-24T17:23:58.743Z,26.27
2019-01-24T17:26:29.256Z,23.10
2019-01-24T17:28:59.765Z,21.60
2019-01-24T17:31:30.332Z,21.83
2019-01-24T17:34:00.871Z,23.17
2019-01-24T17:36:31.343Z,23.20
2019-01-24T17:39:01.827Z,23.23
2019-01-24T17:41:32.375Z,23.63
2019-01-24T17:44:02.824Z,23.33
2019-01-24T17:46:33.368Z,23.63
2019-01-24T17:49:03.841Z,25.10
2019-01-24T17:51:34.351Z,24.27
2019-01-24T17:54:05.011Z,23.73
2019-01-24T17:56:35.486Z,25.43
2019-01-24T17:59:05.946Z,23.73
2019-01-24T18:01:36.410Z,21.20
2019-01-24T18:04:06.919Z,19.90
2019-01-24T18:06:37.484Z,18.77
2019-01-24T18:09:09.667Z,19.47
2019-01-24T18:11:40.148Z,19.77
2019-01-24T18:14:10.719Z,20.47
2019-01-24T18:16:41.186Z,20.80
2019-01-24T18:19:11.664Z,22.17
2019-01-24T18:21:42.156Z,22.77
2019-01-24T18:24:12.982Z,21.70
2019-01-24T18:26:43.461Z,23.53
2019-01-24T18:29:13.915Z,21.60
2019-01-24T18:31:44.396Z,20.57
2019-01-24T18:34:14.923Z,20.40
2019-01-24T18:36:45.337Z,19.93
2019-01-24T18:39:15.851Z,22.27
2019-01-24T18:41:46.322Z,20.50
2019-01-24T18:44:16.845Z,20.60
2019-01-24T18:46:50.088Z,26.13
2019-01-24T18:49:21.036Z,25.83
2019-01-24T18:51:51.738Z,24.13
2019-01-24T18:54:29.805Z,25.40
2019-01-24T18:57:00.388Z,24.60
2019-01-24T18:59:30.812Z,24.87
2019-01-24T19:02:01.259Z,25.57
2019-01-24T19:04:31.713Z,25.97
2019-01-24T19:07:02.175Z,24.40
2019-01-24T19:09:32.881Z,25.03
2019-01-24T19:12:03.339Z,24.80
2019-01-24T19:14:33.791Z,24.60
2019-01-24T19:17:04.482Z,25.80
2019-01-24T19:19:35.009Z,24.23
2019-01-24T19:22:05.466Z,22.17
2019-01-24T19:24:35.941Z,23.90
2019-01-24T19:27:06.442Z,19.67
2019-01-24T19:29:36.936Z,20.07
2019-01-24T19:32:07.406Z,21.97
2019-01-24T19:34:37.891Z,21.80
2019-01-24T19:37:08.428Z,23.43
2019-01-24T19:39:38.951Z,21.07
2019-01-24T19:42:09.476Z,25.67
2019-01-24T19:44:39.979Z,24.17
2019-01-24T19:47:18.562Z,26.57
2019-01-24T19:49:48.050Z,24.87
2019-01-24T19:52:18.587Z,23.43
2019-01-24T19:54:50.409Z,24.47
2019-01-24T19:57:20.935Z,20.93
2019-01-24T19:59:54.100Z,22.40
2019-01-24T20:02:24.573Z,20.27
2019-01-24T20:04:55.152Z,19.87
2019-01-24T20:07:25.644Z,18.63
2019-01-24T20:09:56.133Z,21.33
2019-01-24T20:12:26.569Z,20.43
2019-01-24T20:14:57.152Z,21.83
2019-01-24T20:17:27.716Z,21.43
2019-01-24T20:19:58.289Z,23.20
2019-01-24T20:22:28.858Z,22.83
2019-01-24T20:24:59.387Z,21.47
2019-01-24T20:27:29.952Z,19.50
2019-01-24T20:30:00.514Z,19.40
2019-01-24T20:32:31.011Z,18.87
2019-01-24T20:35:01.667Z,20.93
2019-01-24T20:37:32.178Z,18.13
2019-01-24T20:40:02.776Z,20.97
2019-01-24T20:42:33.244Z,20.90
2019-01-24T20:45:04.156Z,22.05
2019-01-24T20:47:34.701Z,22.30
2019-01-24T20:50:08.579Z,21.77
2019-01-24T20:52:39.088Z,20.57
2019-01-24T20:55:10.650Z,21.70
2019-01-24T20:57:41.149Z,22.03
2019-01-24T21:00:16.793Z,21.90
2019-01-24T21:02:47.365Z,21.57
2019-01-24T21:05:20.744Z,22.50
2019-01-24T21:07:51.257Z,22.57
2019-01-24T21:10:24.453Z,21.33
2019-01-24T21:12:55.114Z,18.90
2019-01-24T21:15:25.575Z,19.07
2019-01-24T21:17:56.010Z,22.27
2019-01-24T21:20:28.127Z,19.37
2019-01-24T21:22:58.596Z,18.60
2019-01-24T21:25:29.524Z,23.07
2019-01-24T21:28:00.033Z,22.80
2019-01-24T21:30:35.682Z,22.97
2019-01-24T21:33:08.110Z,21.50
2019-01-24T21:35:38.625Z,20.70
2019-01-24T21:38:10.023Z,20.73
2019-01-24T21:40:40.527Z,22.83
2019-01-24T21:43:10.980Z,22.60
2019-01-24T21:45:41.459Z,21.37
2019-01-24T21:48:11.939Z,22.90
2019-01-24T21:50:42.399Z,21.20
2019-01-24T21:53:12.856Z,21.70
2019-01-24T21:55:43.407Z,20.07
2019-01-24T21:58:13.865Z,21.13
2019-01-24T22:00:44.386Z,21.33
2019-01-24T22:03:14.852Z,20.93
2019-01-24T22:05:45.355Z,22.67
2019-01-24T22:08:15.839Z,22.20
2019-01-24T22:10:46.338Z,20.47
2019-01-24T22:13:16.789Z,16.93
2019-01-24T22:15:47.273Z,22.37
2019-01-24T22:18:17.748Z,23.07
2019-01-24T22:20:55.358Z,23.30
2019-01-24T22:23:20.445Z,22.27
2019-01-24T22:25:50.949Z,20.97
2019-01-24T22:28:21.509Z,18.03
2019-01-24T22:30:54.850Z,20.57
2019-01-24T22:33:25.313Z,21.20
2019-01-24T22:35:55.980Z,19.37
2019-01-24T22:38:26.570Z,18.00
2019-01-24T22:40:57.120Z,21.93
2019-01-24T22:43:27.779Z,22.10
2019-01-24T22:45:58.383Z,22.33
2019-01-24T22:48:29.082Z,22.07
2019-01-24T22:50:59.552Z,22.77
2019-01-24T22:53:30.049Z,20.53
2019-01-24T22:56:00.554Z,21.03
2019-01-24T22:58:31.051Z,20.40
2019-01-24T23:01:56.384Z,20.60
2019-01-24T23:04:27.533Z,20.23
2019-01-24T23:06:58.007Z,19.50
2019-01-24T23:09:28.487Z,19.17
2019-01-24T23:11:58.980Z,21.60
2019-01-24T23:14:29.485Z,20.87
2019-01-24T23:17:00.010Z,22.25
2019-01-24T23:19:30.596Z,20.53
2019-01-24T23:22:01.030Z,21.37
2019-01-24T23:24:31.567Z,21.47
2019-01-24T23:27:02.045Z,19.97
2019-01-24T23:29:35.003Z,22.73
2019-01-24T23:32:05.910Z,19.73
2019-01-24T23:34:37.651Z,20.23
2019-01-24T23:37:08.245Z,20.67
2019-01-24T23:39:38.796Z,21.13
2019-01-24T23:42:09.440Z,19.50
2019-01-24T23:44:40.001Z,21.07
2019-01-24T23:47:10.543Z,21.73
2019-01-24T23:49:41.131Z,21.57
2019-01-24T23:52:11.705Z,19.07
2019-01-24T23:54:42.253Z,22.13
2019-01-24T23:57:12.817Z,19.73
2019-01-24T23:59:43.342Z,20.70
